sensor_id;sensor_type;location;lat;lon;timestamp;pressure;altitude;pressure_sealevel;temperature;humidity
33496;BME280;19836;55.812;37.560;2022-07-29T05:20:37;99698.25;;;19.74;65.36
33496;BME280;19836;55.812;37.560;2022-07-29T06:02:01;99699.13;;;20.88;60.41
33496;BME280;19836;55.812;37.560;2022-07-29T06:08:49;99690.91;;;20.90;59.20
33496;BME280;19836;55.812;37.560;2022-07-29T06:11:43;99689.25;;;21.00;59.05
33496;BME280;19836;55.812;37.560;2022-07-29T06:17:43;99695.66;;;21.11;58.36
33496;BME280;19836;55.812;37.560;2022-07-29T06:24:27;99686.22;;;21.28;57.88
33496;BME280;19836;55.812;37.560;2022-07-29T07:34:19;99692.16;;;23.05;49.06
33496;BME280;19836;55.812;37.560;2022-07-29T07:51:12;99688.34;;;23.61;47.79
33496;BME280;19836;55.812;37.560;2022-07-29T08:15:43;99703.06;;;23.92;44.52
33496;BME280;19836;55.812;37.560;2022-07-29T08:19:38;99703.34;;;24.09;44.53
33496;BME280;19836;55.812;37.560;2022-07-29T08:22:04;99710.13;;;23.94;44.78
33496;BME280;19836;55.812;37.560;2022-07-29T08:24:30;99704.06;;;23.80;45.45
33496;BME280;19836;55.812;37.560;2022-07-29T08:27:18;99701.44;;;24.00;45.34
33496;BME280;19836;55.812;37.560;2022-07-29T08:29:45;99703.69;;;24.16;45.05
33496;BME280;19836;55.812;37.560;2022-07-29T08:32:11;99699.94;;;23.96;44.60
33496;BME280;19836;55.812;37.560;2022-07-29T08:34:36;99701.22;;;23.81;44.72
33496;BME280;19836;55.812;37.560;2022-07-29T08:37:02;99689.78;;;23.76;44.62
33496;BME280;19836;55.812;37.560;2022-07-29T08:39:28;99686.41;;;23.84;44.80
33496;BME280;19836;55.812;37.560;2022-07-29T08:41:54;99693.16;;;24.11;44.29
33496;BME280;19836;55.812;37.560;2022-07-29T08:44:21;99697.75;;;24.11;43.84
33496;BME280;19836;55.812;37.560;2022-07-29T08:46:48;99695.00;;;24.11;43.66
33496;BME280;19836;55.812;37.560;2022-07-29T08:49:16;99693.41;;;24.08;42.50
33496;BME280;19836;55.812;37.560;2022-07-29T08:51:43;99692.44;;;23.98;42.44
33496;BME280;19836;55.812;37.560;2022-07-29T08:54:09;99684.03;;;23.90;42.86
33496;BME280;19836;55.812;37.560;2022-07-29T08:56:43;99685.66;;;24.13;43.08
33496;BME280;19836;55.812;37.560;2022-07-29T08:59:10;99684.81;;;24.33;43.32
33496;BME280;19836;55.812;37.560;2022-07-29T09:01:37;99679.78;;;24.38;42.70
33496;BME280;19836;55.812;37.560;2022-07-29T09:04:11;99680.34;;;24.32;42.85
33496;BME280;19836;55.812;37.560;2022-07-29T09:06:39;99690.34;;;24.22;43.40
33496;BME280;19836;55.812;37.560;2022-07-29T09:09:08;99683.47;;;24.28;43.40
33496;BME280;19836;55.812;37.560;2022-07-29T09:11:34;99690.16;;;24.55;43.12
33496;BME280;19836;55.812;37.560;2022-07-29T09:14:00;99685.53;;;24.76;42.75
33496;BME280;19836;55.812;37.560;2022-07-29T09:16:44;99684.19;;;24.91;42.89
33496;BME280;19836;55.812;37.560;2022-07-29T09:19:24;99691.41;;;25.02;42.31
33496;BME280;19836;55.812;37.560;2022-07-29T09:21:50;99684.53;;;25.07;41.21
33496;BME280;19836;55.812;37.560;2022-07-29T09:27:01;99685.53;;;25.46;40.54
33496;BME280;19836;55.812;37.560;2022-07-29T09:29:27;99682.44;;;27.64;38.26
33496;BME280;19836;55.812;37.560;2022-07-29T09:31:54;99680.53;;;29.54;35.04
33496;BME280;19836;55.812;37.560;2022-07-29T09:34:28;99687.63;;;30.14;33.14
33496;BME280;19836;55.812;37.560;2022-07-29T09:36:55;99675.34;;;28.92;33.42
33496;BME280;19836;55.812;37.560;2022-07-29T09:39:34;99690.63;;;27.56;35.08
33496;BME280;19836;55.812;37.560;2022-07-29T09:42:05;99691.22;;;26.68;36.43
33496;BME280;19836;55.812;37.560;2022-07-29T09:44:45;99711.09;;;26.24;37.43
33496;BME280;19836;55.812;37.560;2022-07-29T09:47:11;99693.97;;;27.50;36.69
33496;BME280;19836;55.812;37.560;2022-07-29T09:50:10;99700.78;;;27.19;36.35
33496;BME280;19836;55.812;37.560;2022-07-29T09:52:45;99700.78;;;26.54;37.06
33496;BME280;19836;55.812;37.560;2022-07-29T09:55:12;99698.97;;;26.07;37.62
33496;BME280;19836;55.812;37.560;2022-07-29T09:57:38;99702.63;;;25.78;38.29
33496;BME280;19836;55.812;37.560;2022-07-29T10:00:10;99709.94;;;26.17;38.66
33496;BME280;19836;55.812;37.560;2022-07-29T10:02:40;99702.13;;;26.31;38.25
33496;BME280;19836;55.812;37.560;2022-07-29T10:05:23;99703.88;;;27.88;36.81
33496;BME280;19836;55.812;37.560;2022-07-29T10:07:54;99695.81;;;27.86;36.31
33496;BME280;19836;55.812;37.560;2022-07-29T10:10:25;99687.81;;;29.63;35.01
33496;BME280;19836;55.812;37.560;2022-07-29T10:13:01;99695.63;;;30.73;32.82
33496;BME280;19836;55.812;37.560;2022-07-29T10:15:29;99698.94;;;29.46;33.05
33496;BME280;19836;55.812;37.560;2022-07-29T10:17:56;99694.38;;;28.52;34.36
33496;BME280;19836;55.812;37.560;2022-07-29T10:20:24;99692.81;;;30.81;33.13
33496;BME280;19836;55.812;37.560;2022-07-29T10:22:51;99687.34;;;33.68;29.99
33496;BME280;19836;55.812;37.560;2022-07-29T10:25:18;99693.13;;;35.62;27.27
33496;BME280;19836;55.812;37.560;2022-07-29T10:27:45;99681.03;;;36.62;25.24
33496;BME280;19836;55.812;37.560;2022-07-29T10:30:13;99677.22;;;35.56;24.79
33496;BME280;19836;55.812;37.560;2022-07-29T10:33:05;99690.97;;;34.33;25.82
33496;BME280;19836;55.812;37.560;2022-07-29T10:43:48;99691.25;;;30.39;29.16
33496;BME280;19836;55.812;37.560;2022-07-29T10:46:17;99683.31;;;29.54;30.05
33496;BME280;19836;55.812;37.560;2022-07-29T10:52:07;99681.66;;;29.44;31.55
33496;BME280;19836;55.812;37.560;2022-07-29T10:57:26;99674.03;;;31.32;28.89
33496;BME280;19836;55.812;37.560;2022-07-29T11:02:40;99682.13;;;29.65;31.18
33496;BME280;19836;55.812;37.560;2022-07-29T11:10:39;99680.41;;;28.97;32.44
33496;BME280;19836;55.812;37.560;2022-07-29T11:13:05;99684.34;;;28.51;33.32
33496;BME280;19836;55.812;37.560;2022-07-29T11:15:54;99687.19;;;29.77;33.24
33496;BME280;19836;55.812;37.560;2022-07-29T11:18:20;99679.53;;;29.63;32.47
33496;BME280;19836;55.812;37.560;2022-07-29T11:20:48;99667.31;;;28.81;33.22
33496;BME280;19836;55.812;37.560;2022-07-29T11:29:01;99684.94;;;26.94;35.46
33496;BME280;19836;55.812;37.560;2022-07-29T11:34:28;99688.69;;;26.28;37.15
33496;BME280;19836;55.812;37.560;2022-07-29T11:40:12;99701.56;;;26.18;38.05
33496;BME280;19836;55.812;37.560;2022-07-29T11:42:40;99699.81;;;26.17;38.18
33496;BME280;19836;55.812;37.560;2022-07-29T11:45:15;99703.28;;;26.19;38.06
33496;BME280;19836;55.812;37.560;2022-07-29T11:50:13;99700.38;;;26.40;38.04
33496;BME280;19836;55.812;37.560;2022-07-29T11:52:47;99700.97;;;27.89;37.39
33496;BME280;19836;55.812;37.560;2022-07-29T11:55:16;99697.09;;;31.00;33.09
33496;BME280;19836;55.812;37.560;2022-07-29T11:57:57;99690.13;;;33.24;29.52
33496;BME280;19836;55.812;37.560;2022-07-29T12:00:30;99687.59;;;31.96;30.05
33496;BME280;19836;55.812;37.560;2022-07-29T12:02:58;99684.00;;;30.38;31.45
33496;BME280;19836;55.812;37.560;2022-07-29T12:05:42;99684.94;;;29.39;32.92
33496;BME280;19836;55.812;37.560;2022-07-29T12:08:16;99685.06;;;28.79;33.74
33496;BME280;19836;55.812;37.560;2022-07-29T12:10:47;99688.13;;;28.33;34.35
33496;BME280;19836;55.812;37.560;2022-07-29T12:13:16;99689.03;;;27.98;34.72
33496;BME280;19836;55.812;37.560;2022-07-29T12:15:54;99689.91;;;27.81;35.12
33496;BME280;19836;55.812;37.560;2022-07-29T12:18:20;99677.09;;;28.93;34.66
33496;BME280;19836;55.812;37.560;2022-07-29T12:20:59;99678.44;;;32.40;30.66
33496;BME280;19836;55.812;37.560;2022-07-29T12:23:25;99676.50;;;33.73;27.45
33496;BME280;19836;55.812;37.560;2022-07-29T12:25:51;99677.75;;;32.16;28.50
33496;BME280;19836;55.812;37.560;2022-07-29T12:28:17;99673.09;;;30.60;30.31
33496;BME280;19836;55.812;37.560;2022-07-29T12:30:48;99669.16;;;29.65;30.96
33496;BME280;19836;55.812;37.560;2022-07-29T12:33:20;99669.66;;;28.94;31.46
33496;BME280;19836;55.812;37.560;2022-07-29T12:35:50;99673.97;;;28.45;32.36
33496;BME280;19836;55.812;37.560;2022-07-29T12:38:17;99667.69;;;28.18;33.13
33496;BME280;19836;55.812;37.560;2022-07-29T12:40:44;99669.59;;;29.94;32.30
33496;BME280;19836;55.812;37.560;2022-07-29T12:43:18;99675.22;;;30.42;31.19
33496;BME280;19836;55.812;37.560;2022-07-29T12:45:48;99673.66;;;29.58;31.21
33496;BME280;19836;55.812;37.560;2022-07-29T12:48:16;99673.09;;;30.20;31.27
33496;BME280;19836;55.812;37.560;2022-07-29T12:51:11;99661.22;;;33.62;27.89
33496;BME280;19836;55.812;37.560;2022-07-29T12:53:39;99664.13;;;35.50;25.97
33496;BME280;19836;55.812;37.560;2022-07-29T12:56:05;99664.84;;;35.71;24.41
33496;BME280;19836;55.812;37.560;2022-07-29T12:58:37;99665.06;;;36.30;23.41
33496;BME280;19836;55.812;37.560;2022-07-29T13:01:12;99664.28;;;36.94;22.58
33496;BME280;19836;55.812;37.560;2022-07-29T13:09:18;99663.34;;;38.78;20.94
33496;BME280;19836;55.812;37.560;2022-07-29T13:11:46;99663.56;;;39.25;20.10
33496;BME280;19836;55.812;37.560;2022-07-29T13:14:32;99658.28;;;39.53;19.70
33496;BME280;19836;55.812;37.560;2022-07-29T13:19:46;99668.75;;;40.00;19.60
33496;BME280;19836;55.812;37.560;2022-07-29T13:22:14;99657.91;;;40.04;19.00
33496;BME280;19836;55.812;37.560;2022-07-29T13:27:21;99658.47;;;39.16;19.76
33496;BME280;19836;55.812;37.560;2022-07-29T13:29:48;99652.53;;;37.69;20.40
33496;BME280;19836;55.812;37.560;2022-07-29T13:32:17;99651.59;;;38.01;20.47
33496;BME280;19836;55.812;37.560;2022-07-29T13:34:42;99646.34;;;38.73;20.24
33496;BME280;19836;55.812;37.560;2022-07-29T13:37:08;99650.47;;;38.39;20.61
33496;BME280;19836;55.812;37.560;2022-07-29T13:39:34;99648.75;;;37.37;21.33
33496;BME280;19836;55.812;37.560;2022-07-29T13:42:00;99647.66;;;38.39;20.15
33496;BME280;19836;55.812;37.560;2022-07-29T13:44:26;99649.59;;;37.51;20.42
33496;BME280;19836;55.812;37.560;2022-07-29T13:46:52;99659.25;;;36.18;21.86
33496;BME280;19836;55.812;37.560;2022-07-29T13:49:18;99644.94;;;36.99;21.33
33496;BME280;19836;55.812;37.560;2022-07-29T13:51:44;99658.44;;;37.35;21.14
33496;BME280;19836;55.812;37.560;2022-07-29T13:54:09;99656.66;;;38.17;20.77
33496;BME280;19836;55.812;37.560;2022-07-29T13:56:35;99655.19;;;37.51;21.09
33496;BME280;19836;55.812;37.560;2022-07-29T13:59:01;99664.69;;;38.44;20.36
33496;BME280;19836;55.812;37.560;2022-07-29T14:01:27;99650.03;;;37.61;20.07
33496;BME280;19836;55.812;37.560;2022-07-29T14:03:53;99657.91;;;36.08;21.38
33496;BME280;19836;55.812;37.560;2022-07-29T14:06:19;99649.53;;;36.01;21.76
33496;BME280;19836;55.812;37.560;2022-07-29T14:08:45;99647.97;;;34.77;23.01
33496;BME280;19836;55.812;37.560;2022-07-29T14:11:11;99639.97;;;33.11;24.82
33496;BME280;19836;55.812;37.560;2022-07-29T14:13:36;99651.47;;;34.44;24.35
33496;BME280;19836;55.812;37.560;2022-07-29T14:16:02;99650.06;;;36.31;22.58
33496;BME280;19836;55.812;37.560;2022-07-29T14:18:28;99639.91;;;37.47;21.21
33496;BME280;19836;55.812;37.560;2022-07-29T14:20:54;99644.16;;;38.19;20.25
33496;BME280;19836;55.812;37.560;2022-07-29T14:23:20;99637.41;;;38.27;19.93
33496;BME280;19836;55.812;37.560;2022-07-29T14:25:46;99641.94;;;36.75;21.18
33496;BME280;19836;55.812;37.560;2022-07-29T14:28:11;99642.56;;;34.13;23.16
33496;BME280;19836;55.812;37.560;2022-07-29T14:30:38;99648.81;;;32.10;25.11
33496;BME280;19836;55.812;37.560;2022-07-29T14:33:04;99645.56;;;31.46;26.45
33496;BME280;19836;55.812;37.560;2022-07-29T14:35:30;99644.09;;;30.73;27.79
33496;BME280;19836;55.812;37.560;2022-07-29T14:37:56;99647.81;;;29.91;29.77
33496;BME280;19836;55.812;37.560;2022-07-29T14:40:22;99646.78;;;29.43;30.45
33496;BME280;19836;55.812;37.560;2022-07-29T14:42:48;99642.72;;;29.13;30.56
33496;BME280;19836;55.812;37.560;2022-07-29T14:45:14;99637.03;;;28.89;31.54
33496;BME280;19836;55.812;37.560;2022-07-29T14:47:40;99636.56;;;28.68;32.22
33496;BME280;19836;55.812;37.560;2022-07-29T14:50:09;99640.00;;;28.62;32.26
33496;BME280;19836;55.812;37.560;2022-07-29T14:52:35;99635.91;;;28.49;32.83
33496;BME280;19836;55.812;37.560;2022-07-29T14:55:00;99639.66;;;28.40;33.25
33496;BME280;19836;55.812;37.560;2022-07-29T14:57:26;99632.47;;;28.29;32.94
33496;BME280;19836;55.812;37.560;2022-07-29T14:59:52;99634.94;;;28.15;33.15
33496;BME280;19836;55.812;37.560;2022-07-29T15:02:18;99633.25;;;28.90;32.19
33496;BME280;19836;55.812;37.560;2022-07-29T15:04:44;99631.00;;;28.86;32.21
33496;BME280;19836;55.812;37.560;2022-07-29T15:07:11;99632.47;;;28.47;32.85
33496;BME280;19836;55.812;37.560;2022-07-29T15:09:37;99636.91;;;28.22;33.81
33496;BME280;19836;55.812;37.560;2022-07-29T15:12:03;99637.72;;;27.97;34.60
33496;BME280;19836;55.812;37.560;2022-07-29T15:14:30;99640.88;;;27.75;34.52
33496;BME280;19836;55.812;37.560;2022-07-29T15:16:57;99644.78;;;27.55;35.19
33496;BME280;19836;55.812;37.560;2022-07-29T15:19:23;99636.69;;;27.36;35.72
33496;BME280;19836;55.812;37.560;2022-07-29T15:21:49;99649.66;;;27.26;35.53
33496;BME280;19836;55.812;37.560;2022-07-29T15:24:18;99636.03;;;27.15;35.31
33496;BME280;19836;55.812;37.560;2022-07-29T15:26:45;99643.38;;;26.97;35.45
33496;BME280;19836;55.812;37.560;2022-07-29T15:29:11;99645.31;;;26.87;35.91
33496;BME280;19836;55.812;37.560;2022-07-29T15:31:37;99645.50;;;26.76;36.21
33496;BME280;19836;55.812;37.560;2022-07-29T15:34:03;99645.66;;;26.65;36.19
33496;BME280;19836;55.812;37.560;2022-07-29T15:36:30;99645.66;;;26.65;36.20
33496;BME280;19836;55.812;37.560;2022-07-29T15:38:56;99667.66;;;26.65;36.09
33496;BME280;19836;55.812;37.560;2022-07-29T15:41:22;99680.56;;;26.55;36.74
33496;BME280;19836;55.812;37.560;2022-07-29T15:43:49;99677.13;;;26.25;37.93
33496;BME280;19836;55.812;37.560;2022-07-29T15:46:17;99695.91;;;25.91;39.01
33496;BME280;19836;55.812;37.560;2022-07-29T15:49:05;99690.19;;;25.64;39.81
33496;BME280;19836;55.812;37.560;2022-07-29T15:51:34;99684.72;;;25.55;40.36
33496;BME280;19836;55.812;37.560;2022-07-29T15:54:01;99702.47;;;25.51;40.60
33496;BME280;19836;55.812;37.560;2022-07-29T15:56:28;99699.31;;;25.55;40.92
33496;BME280;19836;55.812;37.560;2022-07-29T15:58:56;99695.56;;;25.56;40.79
33496;BME280;19836;55.812;37.560;2022-07-29T16:01:22;99695.09;;;25.51;40.91
33496;BME280;19836;55.812;37.560;2022-07-29T16:03:48;99703.16;;;25.43;40.74
33496;BME280;19836;55.812;37.560;2022-07-29T16:06:14;99711.50;;;25.32;41.00
33496;BME280;19836;55.812;37.560;2022-07-29T16:08:40;99711.84;;;25.18;41.28
33496;BME280;19836;55.812;37.560;2022-07-29T16:11:06;99710.78;;;25.00;41.54
33496;BME280;19836;55.812;37.560;2022-07-29T16:13:32;99722.81;;;24.88;41.84
33496;BME280;19836;55.812;37.560;2022-07-29T16:15:58;99710.47;;;24.73;42.20
33496;BME280;19836;55.812;37.560;2022-07-29T16:18:24;99717.78;;;24.63;42.68
33496;BME280;19836;55.812;37.560;2022-07-29T16:20:49;99709.59;;;24.52;43.06
33496;BME280;19836;55.812;37.560;2022-07-29T16:23:15;99715.28;;;24.40;43.47
33496;BME280;19836;55.812;37.560;2022-07-29T16:25:41;99723.56;;;24.29;43.99
33496;BME280;19836;55.812;37.560;2022-07-29T16:28:07;99725.47;;;24.17;44.26
33496;BME280;19836;55.812;37.560;2022-07-29T16:30:36;99723.28;;;24.11;44.99
33496;BME280;19836;55.812;37.560;2022-07-29T16:33:02;99724.28;;;24.10;45.20
33496;BME280;19836;55.812;37.560;2022-07-29T16:35:28;99718.44;;;24.04;45.21
33496;BME280;19836;55.812;37.560;2022-07-29T16:37:57;99725.91;;;24.02;45.59
33496;BME280;19836;55.812;37.560;2022-07-29T16:40:23;99721.09;;;23.94;45.93
33496;BME280;19836;55.812;37.560;2022-07-29T16:42:49;99729.78;;;23.88;46.50
33496;BME280;19836;55.812;37.560;2022-07-29T16:45:15;99730.06;;;23.85;46.46
33496;BME280;19836;55.812;37.560;2022-07-29T16:47:41;99727.56;;;23.82;46.53
33496;BME280;19836;55.812;37.560;2022-07-29T16:50:08;99730.31;;;23.82;46.70
33496;BME280;19836;55.812;37.560;2022-07-29T16:52:34;99731.31;;;23.81;46.64
33496;BME280;19836;55.812;37.560;2022-07-29T16:55:00;99724.34;;;23.77;46.98
33496;BME280;19836;55.812;37.560;2022-07-29T16:57:26;99723.88;;;23.72;47.11
33496;BME280;19836;55.812;37.560;2022-07-29T16:59:52;99727.00;;;23.68;47.29
33496;BME280;19836;55.812;37.560;2022-07-29T17:02:18;99720.28;;;23.61;47.50
33496;BME280;19836;55.812;37.560;2022-07-29T17:04:43;99719.94;;;23.54;47.78
33496;BME280;19836;55.812;37.560;2022-07-29T17:07:09;99720.44;;;23.48;48.07
33496;BME280;19836;55.812;37.560;2022-07-29T17:09:36;99728.44;;;23.40;48.31
33496;BME280;19836;55.812;37.560;2022-07-29T17:12:02;99723.09;;;23.39;48.52
33496;BME280;19836;55.812;37.560;2022-07-29T17:14:29;99732.16;;;23.39;48.60
33496;BME280;19836;55.812;37.560;2022-07-29T17:16:59;99733.03;;;23.40;48.69
33496;BME280;19836;55.812;37.560;2022-07-29T17:19:26;99733.78;;;23.31;48.57
33496;BME280;19836;55.812;37.560;2022-07-29T17:21:55;99733.69;;;23.21;48.73
33496;BME280;19836;55.812;37.560;2022-07-29T17:24:21;99738.34;;;23.08;49.06
33496;BME280;19836;55.812;37.560;2022-07-29T17:26:47;99736.50;;;22.98;49.21
33496;BME280;19836;55.812;37.560;2022-07-29T17:29:13;99731.78;;;22.89;49.37
33496;BME280;19836;55.812;37.560;2022-07-29T17:31:47;99734.63;;;22.76;49.32
33496;BME280;19836;55.812;37.560;2022-07-29T17:34:14;99731.88;;;22.65;49.51
33496;BME280;19836;55.812;37.560;2022-07-29T17:36:40;99731.88;;;22.54;49.58
33496;BME280;19836;55.812;37.560;2022-07-29T17:39:07;99742.50;;;22.46;49.76
33496;BME280;19836;55.812;37.560;2022-07-29T17:41:42;99733.50;;;22.33;50.00
33496;BME280;19836;55.812;37.560;2022-07-29T17:44:09;99740.44;;;22.26;50.19
33496;BME280;19836;55.812;37.560;2022-07-29T17:46:35;99739.53;;;22.15;50.62
33496;BME280;19836;55.812;37.560;2022-07-29T17:49:01;99742.84;;;22.07;50.88
33496;BME280;19836;55.812;37.560;2022-07-29T17:51:28;99750.75;;;21.99;51.01
33496;BME280;19836;55.812;37.560;2022-07-29T17:54:19;99746.25;;;21.98;51.42
33496;BME280;19836;55.812;37.560;2022-07-29T17:56:46;99751.56;;;21.89;51.34
33496;BME280;19836;55.812;37.560;2022-07-29T17:59:12;99754.13;;;21.79;51.40
33496;BME280;19836;55.812;37.560;2022-07-29T18:01:42;99763.75;;;21.72;51.57
33496;BME280;19836;55.812;37.560;2022-07-29T18:04:08;99761.56;;;21.65;51.56
33496;BME280;19836;55.812;37.560;2022-07-29T18:06:34;99763.75;;;21.60;51.73
33496;BME280;19836;55.812;37.560;2022-07-29T18:09:00;99766.50;;;21.60;51.92
33496;BME280;19836;55.812;37.560;2022-07-29T18:11:26;99772.28;;;21.55;51.93
33496;BME280;19836;55.812;37.560;2022-07-29T18:21:27;99766.25;;;21.39;50.82
33496;BME280;19836;55.812;37.560;2022-07-29T18:23:53;99769.94;;;21.26;50.93
33496;BME280;19836;55.812;37.560;2022-07-29T18:26:19;99774.56;;;21.13;51.19
33496;BME280;19836;55.812;37.560;2022-07-29T18:28:45;99783.06;;;21.08;51.17
33496;BME280;19836;55.812;37.560;2022-07-29T18:31:11;99780.69;;;21.04;51.48
33496;BME280;19836;55.812;37.560;2022-07-29T18:33:39;99787.22;;;21.01;51.57
33496;BME280;19836;55.812;37.560;2022-07-29T18:36:08;99770.34;;;20.96;51.44
33496;BME280;19836;55.812;37.560;2022-07-29T18:38:41;99781.34;;;20.95;52.05
33496;BME280;19836;55.812;37.560;2022-07-29T18:41:15;99780.00;;;20.88;52.20
33496;BME280;19836;55.812;37.560;2022-07-29T18:43:41;99777.59;;;20.83;52.34
33496;BME280;19836;55.812;37.560;2022-07-29T18:46:07;99782.28;;;20.81;52.72
33496;BME280;19836;55.812;37.560;2022-07-29T18:48:33;99786.00;;;20.80;52.85
33496;BME280;19836;55.812;37.560;2022-07-29T18:50:59;99780.00;;;20.75;52.97
33496;BME280;19836;55.812;37.560;2022-07-29T18:53:29;99785.91;;;20.69;53.66
33496;BME280;19836;55.812;37.560;2022-07-29T18:55:55;99790.66;;;20.66;53.51
33496;BME280;19836;55.812;37.560;2022-07-29T18:58:22;99791.66;;;20.65;53.57
33496;BME280;19836;55.812;37.560;2022-07-29T19:00:51;99788.16;;;20.63;54.05
33496;BME280;19836;55.812;37.560;2022-07-29T19:03:59;99786.44;;;20.62;54.44
33496;BME280;19836;55.812;37.560;2022-07-29T19:07:52;99771.84;;;20.63;54.35
